Airfield :
LOGIN :

Register | Disclaimer

   EN    FR    IT 

 










Legend :    VFR   Marginal VFR   IFR   Intensive IFR   Very Intensive IFR
Visi :
Ceiling :
>= 8 km
>= 3000ft
5 to 8 km
1000 to 3000 ft
1500m to 5 km
500 to 1000 ft
800 to 1500m
200 to 500 ft
< 800m
< 200 ft
Symbols :   Thunderstorms  Fog  Heavy snow  Heavy precipitations  Wind > 20 kt
SIGMETs :     Misc.  Thunderstorms  Icing  Turbulence  Mountain Waves  Volcanic Ashes







- Airport Elevation : 129 ft
- IATA code : ZCN


ETHC - Celle

CURRENT METAR :
  • 281620Z 24012G22KT 9999 FEW040 SCT230 20/10 Q1011 BLU+

EXPIRED METARs :
  • 281520Z 28004KT 9999 FEW042CB BKN060 16/13 Q1011 RESHRA BLU
  • 281452Z 28009KT 8000 FEW038 SCT041CB BKN050 17/11 Q1011 RESHRA BLU
  • 281447Z 28010KT 7000 SHRA FEW038 BKN041CB BKN050 18/10 Q1011 WHT
  • 281420Z 25014G25KT 9999 VCSH FEW045 FEW050CB SCT053 BKN065 21/08 Q1010 BLU

TAF AMD TAF ETHC
Valid from the 28 at 08:00 until the 28 at 17:00 UTC


281002Z 2808/2817 24012KT 9999 NSW SCT030
TEMPO 2808/2817 25015G25KT 6000 -SHRA BKN020TCU CANCEL 1030
No reported NOTAMs for that airfield.



MET'MAP, your aeronautical weather chart ! - Copyright ORBIFLY December 2007 - Disclaimer

ORBIFLY MET'MAP TEAM :

Programming & Development : Alexandra Zaïnal
Concept & Development : Baudouin d'Aumeries
Co-Development & Prog : Marc-Olivier Méhu
Technical & hardware support : Manuel Goepfert

Contact : metmap@orbifly.com




SOURCES & CREDITS :

   NOAA